Time;durP1;ratioP1;P1;durP2;ratioP2;P2;SDS_P1;SDS_P2;PMS_P1;PMS_P2;Temp;Humidity;BMP_temperature;BMP_pressure;BME280_temperature;BME280_humidity;BME280_pressure;Samples;Min_cycle;Max_cycle;Signal;HPM_P1;HPM_P2
2021/09/06 00:02:09;;;;;;;3.22;2.65;;;;;;;17.89;40.70;101218.20;2458639;79;30884;-78
2021/09/06 00:05:31;;;;;;;2.50;2.12;;;;;;;17.85;40.79;101221.66;2458525;79;30895;-77
2021/09/06 00:08:51;;;;;;;2.55;1.70;;;;;;;17.83;40.82;101220.34;2458363;79;25919;-77
2021/09/06 00:12:12;;;;;;;6.30;2.20;;;;;;;17.81;40.91;101223.84;2458618;79;30918;-86
2021/09/06 00:15:35;;;;;;;4.12;1.65;;;;;;;17.78;41.03;101223.37;2458438;80;25661;-75
2021/09/06 00:18:56;;;;;;;3.27;1.95;;;;;;;17.73;41.13;101225.08;2458525;79;25634;-76
2021/09/06 00:22:17;;;;;;;2.20;1.90;;;;;;;17.71;41.26;101230.32;2458017;80;31320;-78
2021/09/06 00:25:40;;;;;;;2.90;1.90;;;;;;;17.67;41.39;101234.25;2458575;79;31300;-80
2021/09/06 00:29:01;;;;;;;2.20;1.77;;;;;;;17.65;41.48;101230.30;2458271;79;26440;-75
2021/09/06 00:32:22;;;;;;;2.08;1.60;;;;;;;17.64;41.58;101230.27;2458638;78;30856;-76
2021/09/06 00:35:43;;;;;;;2.87;1.75;;;;;;;17.61;41.65;101232.44;2458367;78;25637;-77
2021/09/06 00:39:04;;;;;;;2.42;1.65;;;;;;;17.58;41.76;101230.20;2458617;80;31551;-78
2021/09/06 00:42:25;;;;;;;2.27;2.08;;;;;;;17.46;41.88;101216.06;2458271;79;25657;-78
2021/09/06 00:45:47;;;;;;;1.70;1.60;;;;;;;17.53;41.98;101230.63;2456697;80;26178;-77
2021/09/06 00:49:10;;;;;;;4.87;2.10;;;;;;;17.49;42.06;101234.11;2456217;80;25590;-80
2021/09/06 00:52:35;;;;;;;2.00;1.70;;;;;;;17.46;42.17;101231.00;2453783;80;26485;-78
2021/09/06 00:55:57;;;;;;;2.42;2.00;;;;;;;17.41;42.27;101234.02;2455994;80;25759;-77
2021/09/06 00:59:18;;;;;;;2.33;2.00;;;;;;;17.39;42.35;101234.45;2455423;80;25731;-76
2021/09/06 01:02:40;;;;;;;2.80;2.00;;;;;;;17.35;42.50;101236.63;2456310;78;30881;-76
2021/09/06 01:06:01;;;;;;;1.87;1.65;;;;;;;17.30;42.59;101239.63;2449255;80;25705;-83
2021/09/06 01:09:43;;;;;;;2.27;1.87;;;;;;;17.25;42.78;101233.02;2455626;80;25731;-77
2021/09/06 01:13:06;;;;;;;2.05;1.50;;;;;;;17.23;42.90;101234.73;2452906;78;25721;-77
2021/09/06 01:16:27;;;;;;;2.65;2.08;;;;;;;17.19;43.02;101232.94;2455610;80;25613;-79
2021/09/06 01:19:49;;;;;;;1.98;1.70;;;;;;;17.15;43.13;101239.06;2455954;80;30804;-76
2021/09/06 01:23:13;;;;;;;2.22;1.55;;;;;;;17.12;43.27;101239.02;2455491;80;25782;-78
2021/09/06 01:26:39;;;;;;;6.03;2.20;;;;;;;17.09;43.39;101235.03;2340547;84;25744;-77
2021/09/06 01:30:00;;;;;;;2.37;1.82;;;;;;;17.05;43.50;101235.44;2341191;84;25845;-78
2021/09/06 01:33:22;;;;;;;4.60;2.30;;;;;;;17.03;43.59;101236.28;2340954;83;26202;-77
2021/09/06 01:36:44;;;;;;;2.77;2.00;;;;;;;16.99;43.73;101234.92;2341169;84;31031;-76
2021/09/06 01:40:07;;;;;;;2.47;2.02;;;;;;;16.96;43.83;101229.63;2341254;84;25784;-79
2021/09/06 01:43:30;;;;;;;2.87;2.20;;;;;;;16.93;43.93;101233.53;2341043;84;25246;-76
2021/09/06 01:46:51;;;;;;;2.52;2.22;;;;;;;16.91;44.08;101230.02;2340469;84;25723;-76
2021/09/06 01:50:13;;;;;;;4.42;2.80;;;;;;;16.87;44.17;101231.27;2341251;84;26062;-76
2021/09/06 01:53:44;;;;;;;3.02;2.02;;;;;;;16.84;44.23;101236.09;2340571;83;25665;-77
2021/09/06 01:57:05;;;;;;;3.35;2.37;;;;;;;16.81;44.29;101232.51;2340601;84;25659;-78
2021/09/06 02:00:27;;;;;;;3.65;2.42;;;;;;;16.79;44.38;101235.13;2340830;84;25683;-83
2021/09/06 02:03:48;;;;;;;3.60;2.10;;;;;;;16.74;44.51;101234.18;2404030;80;25723;-78
2021/09/06 02:07:10;;;;;;;2.80;2.37;;;;;;;16.71;44.64;101233.70;2455488;80;25550;-76
2021/09/06 02:10:33;;;;;;;2.67;2.27;;;;;;;16.69;44.68;101235.42;2455542;80;25626;-77
2021/09/06 02:13:55;;;;;;;7.60;2.33;;;;;;;16.65;44.80;101243.27;2422850;80;25779;-77
2021/09/06 02:17:16;;;;;;;3.77;2.50;;;;;;;16.60;44.84;101243.20;2455818;80;30846;-76
2021/09/06 02:20:38;;;;;;;3.33;2.45;;;;;;;16.55;44.96;101238.76;2455567;80;25664;-77
2021/09/06 02:24:02;;;;;;;3.40;2.50;;;;;;;16.52;45.10;101236.96;2454991;80;25578;-76
2021/09/06 02:27:27;;;;;;;3.80;2.87;;;;;;;16.50;45.20;101237.36;2455637;80;44549;-76
2021/09/06 02:30:50;;;;;;;3.45;2.77;;;;;;;16.48;45.27;101233.41;2455375;80;25981;-76
2021/09/06 02:34:12;;;;;;;3.67;2.95;;;;;;;16.46;45.37;101231.61;2453856;80;25684;-84
2021/09/06 02:37:35;;;;;;;3.67;3.08;;;;;;;16.43;45.49;101232.89;2455356;80;25735;-76
2021/09/06 02:40:57;;;;;;;5.33;2.55;;;;;;;16.42;45.54;101240.34;2455319;80;25576;-77
2021/09/06 02:44:20;;;;;;;3.75;3.45;;;;;;;16.38;45.65;101228.89;2455420;79;26343;-76
2021/09/06 02:47:47;;;;;;;3.02;2.72;;;;;;;16.36;45.72;101234.55;2455171;80;25609;-82
2021/09/06 02:51:09;;;;;;;6.37;3.72;;;;;;;16.33;45.78;101237.58;2455964;79;26230;-76
2021/09/06 02:54:31;;;;;;;4.62;3.47;;;;;;;16.30;45.89;101235.81;2455533;79;26388;-76
2021/09/06 02:57:52;;;;;;;3.50;3.20;;;;;;;16.26;45.94;101233.53;2455812;80;25634;-78
2021/09/06 03:01:13;;;;;;;6.22;3.25;;;;;;;16.24;46.05;101231.33;2455687;78;26394;-77
2021/09/06 03:04:35;;;;;;;5.33;3.37;;;;;;;16.20;46.10;101225.59;2455489;80;25724;-78
2021/09/06 03:08:00;;;;;;;4.60;3.60;;;;;;;16.18;46.17;101231.68;2455673;80;25652;-77
2021/09/06 03:11:25;;;;;;;8.58;3.85;;;;;;;16.15;46.28;101235.58;2456064;80;25562;-78
2021/09/06 03:14:47;;;;;;;5.40;3.58;;;;;;;16.12;46.33;101229.83;2455895;80;25692;-77
2021/09/06 03:18:09;;;;;;;9.35;3.85;;;;;;;16.09;46.39;101224.96;2455966;80;25688;-78
2021/09/06 03:21:49;;;;;;;4.85;4.20;;;;;;;16.03;46.43;101217.85;2449769;80;25704;-81
2021/09/06 03:25:12;;;;;;;5.95;3.65;;;;;;;15.99;46.49;101217.36;2453909;79;25608;-78
2021/09/06 03:28:33;;;;;;;5.20;3.45;;;;;;;15.95;46.65;101214.23;2455761;78;31483;-77
2021/09/06 03:31:54;;;;;;;3.52;3.22;;;;;;;15.91;46.71;101207.17;2455557;80;26367;-77
2021/09/06 03:35:18;;;;;;;4.80;3.52;;;;;;;15.88;46.71;101211.95;2455354;80;25645;-77
2021/09/06 03:38:40;;;;;;;6.12;2.92;;;;;;;15.86;46.71;101213.66;2454561;80;25656;-77
2021/09/06 03:42:11;;;;;;;5.00;3.35;;;;;;;15.82;46.74;101211.41;2449606;79;25612;-77
2021/09/06 03:45:35;;;;;;;4.40;3.27;;;;;;;15.79;46.78;101206.14;2454119;79;25646;-76
2021/09/06 03:48:57;;;;;;;4.28;2.98;;;;;;;15.78;46.75;101209.61;2455855;80;25669;-76
2021/09/06 03:52:18;;;;;;;5.08;3.47;;;;;;;15.77;46.69;101212.22;2456193;79;25410;-77
2021/09/06 03:55:39;;;;;;;4.72;3.30;;;;;;;15.76;46.71;101210.43;2455666;80;25648;-77
2021/09/06 03:59:00;;;;;;;4.40;3.12;;;;;;;15.78;46.72;101214.86;2455857;79;25672;-78
2021/09/06 04:02:22;;;;;;;5.15;3.30;;;;;;;15.78;46.66;101220.55;2455692;80;25640;-77
2021/09/06 04:05:45;;;;;;;6.17;3.58;;;;;;;15.76;46.73;101215.69;2455460;79;25877;-77
2021/09/06 04:09:07;;;;;;;4.42;3.35;;;;;;;15.77;46.77;101215.73;2455139;80;25267;-77
2021/09/06 04:12:28;;;;;;;7.80;3.65;;;;;;;15.69;46.78;101194.11;2456035;80;30766;-77
2021/09/06 04:15:49;;;;;;;8.08;3.75;;;;;;;15.78;46.81;101216.61;2454268;79;25151;-76
2021/09/06 04:19:11;;;;;;;6.12;3.55;;;;;;;15.64;46.79;101202.34;2455712;79;25535;-77
2021/09/06 04:22:33;;;;;;;6.97;4.12;;;;;;;15.64;46.79;101202.34;2456139;79;30945;-77
2021/09/06 04:25:54;;;;;;;7.83;4.17;;;;;;;15.77;47.01;101223.63;2454980;80;25663;-78
2021/09/06 04:29:15;;;;;;;6.00;4.22;;;;;;;15.78;47.07;101230.64;2455513;80;25637;-77
2021/09/06 04:32:37;;;;;;;9.18;4.47;;;;;;;15.77;47.07;101233.26;2453781;80;25621;-79
2021/09/06 04:35:58;;;;;;;12.28;4.30;;;;;;;15.78;47.35;101234.58;2455667;80;25722;-77
2021/09/06 04:39:21;;;;;;;7.50;4.70;;;;;;;15.78;47.35;101234.58;2455673;80;25695;-79
2021/09/06 04:42:45;;;;;;;7.70;4.78;;;;;;;15.79;47.21;101234.15;2455838;80;25707;-77
2021/09/06 04:46:06;;;;;;;5.33;4.20;;;;;;;15.77;47.29;101234.57;2455493;80;25787;-77
2021/09/06 04:49:27;;;;;;;5.62;4.35;;;;;;;15.77;47.32;101237.20;2456096;80;26387;-78
2021/09/06 04:52:48;;;;;;;6.28;5.17;;;;;;;15.78;47.51;101236.33;2455817;80;25656;-77
2021/09/06 04:56:10;;;;;;;9.13;5.20;;;;;;;15.79;47.55;101236.38;2423031;80;25814;-77
2021/09/06 04:59:32;;;;;;;7.60;5.08;;;;;;;15.81;47.60;101244.27;2455686;80;25887;-78
2021/09/06 05:02:55;;;;;;;6.37;5.15;;;;;;;15.86;47.64;101246.52;2455023;80;25790;-77
2021/09/06 05:06:17;;;;;;;9.58;6.17;;;;;;;15.89;47.69;101253.59;2455620;80;25747;-77
2021/09/06 05:09:38;;;;;;;11.03;5.87;;;;;;;15.77;47.79;101231.94;2454719;78;25745;-77
2021/09/06 05:12:59;;;;;;;6.60;5.90;;;;;;;15.94;47.84;101252.81;2454578;79;25703;-77
2021/09/06 05:16:26;;;;;;;8.70;5.58;;;;;;;15.99;47.86;101251.55;2454494;80;25661;-77
2021/09/06 05:19:47;;;;;;;8.33;6.12;;;;;;;16.03;47.96;101250.33;2455083;79;25648;-77
2021/09/06 05:23:08;;;;;;;8.13;5.12;;;;;;;16.06;48.01;101246.83;2455411;80;25895;-77
2021/09/06 05:26:30;;;;;;;6.25;5.60;;;;;;;16.10;48.07;101251.30;2454961;80;25701;-77
2021/09/06 05:29:53;;;;;;;8.00;6.40;;;;;;;16.02;48.17;101230.13;2454176;79;25613;-81
2021/09/06 05:33:15;;;;;;;7.08;5.83;;;;;;;16.02;48.17;101230.13;2455302;80;26121;-77
2021/09/06 05:36:37;;;;;;;10.60;6.22;;;;;;;16.20;48.27;101255.84;2453597;80;26138;-78
2021/09/06 05:40:04;;;;;;;11.78;6.10;;;;;;;16.25;48.27;101256.77;2455541;80;30949;-77
2021/09/06 05:43:25;;;;;;;8.83;6.67;;;;;;;16.36;48.26;101265.25;2454738;80;25633;-77
2021/09/06 05:46:47;;;;;;;10.38;5.87;;;;;;;16.43;48.24;101262.72;2452361;80;26284;-87
2021/09/06 05:50:16;;;;;;;6.78;5.62;;;;;;;16.52;48.18;101257.59;2454638;80;25716;-75
2021/09/06 05:53:35;;;;;;;7.90;5.53;;;;;;;16.60;48.18;101262.06;2450108;80;26301;-75
2021/09/06 05:56:58;;;;;;;10.48;5.72;;;;;;;16.67;48.18;101261.27;2454857;80;25680;-74
2021/09/06 06:00:27;;;;;;;7.37;5.10;;;;;;;16.73;48.09;101266.63;2454938;79;25903;-78
2021/09/06 06:03:48;;;;;;;8.75;5.00;;;;;;;16.78;48.04;101264.98;2452330;79;25523;-82
2021/09/06 06:07:11;;;;;;;6.47;4.28;;;;;;;16.86;47.94;101271.20;2386539;82;25646;-82
2021/09/06 06:10:32;;;;;;;8.18;4.50;;;;;;;16.90;47.89;101278.27;2387084;81;25208;-75
2021/09/06 06:13:53;;;;;;;8.40;5.20;;;;;;;16.95;47.81;101279.23;2379889;81;25695;-81
2021/09/06 06:17:15;;;;;;;4.28;3.87;;;;;;;17.00;47.70;101276.64;2394340;80;25698;-74
2021/09/06 06:20:36;;;;;;;7.47;3.60;;;;;;;17.05;47.56;101276.27;2430451;80;25599;-73
2021/09/06 06:24:08;;;;;;;4.22;3.27;;;;;;;17.09;47.33;101278.07;2425236;79;25854;-73
2021/09/06 06:27:37;;;;;;;;;;;;;;;17.15;47.04;101283.41;2456954;79;25834;-86
2021/09/06 06:31:00;;;;;;;6.08;2.77;;;;;;;17.23;46.83;101282.17;2441572;81;25790;-74
2021/09/06 06:34:21;;;;;;;4.22;3.08;;;;;;;17.29;46.55;101286.19;2441655;79;25628;-74
2021/09/06 06:37:42;;;;;;;6.60;2.58;;;;;;;17.38;46.41;101290.66;2452542;80;25842;-73
2021/09/06 06:41:04;;;;;;;3.95;3.10;;;;;;;17.46;46.25;101296.47;2412499;81;25192;-74
2021/09/06 06:44:29;;;;;;;7.22;2.70;;;;;;;17.56;46.04;101289.54;2380425;81;25683;-74
2021/09/06 06:47:51;;;;;;;4.17;2.15;;;;;;;17.67;45.92;101304.14;2394429;81;25694;-73
2021/09/06 06:51:13;;;;;;;4.45;2.65;;;;;;;17.80;45.74;101298.14;2401331;81;25618;-74
2021/09/06 06:54:35;;;;;;;3.87;2.05;;;;;;;17.93;45.61;101299.13;2401144;82;25683;-75
2021/09/06 06:58:01;;;;;;;9.63;2.12;;;;;;;19.23;45.17;101305.13;2376106;81;25619;-75
2021/09/06 07:01:26;;;;;;;8.65;2.60;;;;;;;22.81;42.01;101305.38;2363886;81;26303;-75
2021/09/06 07:04:51;;;;;;;5.20;1.85;;;;;;;25.75;38.40;101317.88;2354908;83;25637;-81
2021/09/06 07:08:14;;;;;;;5.15;1.57;;;;;;;27.68;35.59;101319.15;2360179;81;25675;-80
2021/09/06 07:11:35;;;;;;;4.83;2.25;;;;;;;29.62;33.05;101335.88;2365313;81;25773;-78
2021/09/06 07:14:58;;;;;;;6.50;1.65;;;;;;;31.55;30.73;101339.89;2366056;81;25683;-77
2021/09/06 07:18:20;;;;;;;13.40;1.42;;;;;;;33.35;28.60;101356.60;2375924;83;25737;-85
2021/09/06 07:21:46;;;;;;;8.33;1.35;;;;;;;34.91;26.47;101358.64;2360430;82;26158;-83
2021/09/06 07:25:08;;;;;;;2.58;1.27;;;;;;;35.64;23.06;101365.24;2364795;83;25707;-86
2021/09/06 07:28:32;;;;;;;5.87;1.27;;;;;;;35.81;20.94;101371.80;2356337;81;25703;-80
2021/09/06 07:31:54;;;;;;;4.28;1.25;;;;;;;35.94;20.12;101367.75;2361675;81;25640;-81
2021/09/06 07:35:15;;;;;;;7.95;1.10;;;;;;;36.22;19.43;101368.64;2363762;81;25774;-82
2021/09/06 07:38:36;;;;;;;2.77;0.90;;;;;;;36.53;18.85;101371.48;2358601;81;25851;-83
2021/09/06 07:42:04;;;;;;;4.40;1.20;;;;;;;36.78;17.90;101366.52;2376647;81;25815;-80
2021/09/06 07:45:27;;;;;;;5.67;1.37;;;;;;;37.16;16.71;101373.79;2395916;82;25603;-79
2021/09/06 07:48:49;;;;;;;1.92;1.15;;;;;;;37.16;16.71;101373.79;2397489;81;25687;-82
2021/09/06 07:52:11;;;;;;;1.57;1.00;;;;;;;37.15;15.75;101371.56;2398781;80;25741;-80
2021/09/06 07:55:35;;;;;;;2.75;0.98;;;;;;;37.01;15.35;101372.57;2400449;82;25684;-81
2021/09/06 07:58:56;;;;;;;1.45;1.05;;;;;;;36.83;15.41;101367.95;2384813;81;25713;-86
2021/09/06 08:02:17;;;;;;;2.22;1.10;;;;;;;37.21;15.92;101369.77;2374292;81;25663;-82
2021/09/06 08:05:45;;;;;;;2.92;1.50;;;;;;;37.21;15.16;101365.69;2399505;81;25931;-81
2021/09/06 08:09:08;;;;;;;2.05;1.00;;;;;;;37.48;14.84;101362.81;2345083;81;25632;-85
2021/09/06 08:12:32;;;;;;;1.05;0.88;;;;;;;37.82;15.00;101376.61;2362311;81;25656;-84
2021/09/06 08:15:53;;;;;;;2.98;0.90;;;;;;;37.89;14.79;101369.70;2355224;81;25936;-79
2021/09/06 08:19:14;;;;;;;1.90;0.78;;;;;;;38.17;14.77;101364.89;2393636;81;25719;-79
2021/09/06 08:22:40;;;;;;;5.10;1.05;;;;;;;38.49;14.95;101367.38;2395632;82;25388;-80
2021/09/06 08:26:01;;;;;;;1.80;0.70;;;;;;;38.96;14.41;101374.14;2362164;81;25149;-81
2021/09/06 08:29:23;;;;;;;1.05;0.53;;;;;;;39.05;13.94;101371.15;2361326;81;25744;-83
2021/09/06 08:32:44;;;;;;;1.20;0.72;;;;;;;38.97;13.09;101371.28;2359210;81;25568;-84
2021/09/06 08:36:14;;;;;;;1.15;0.53;;;;;;;38.85;13.51;101373.66;2365101;81;26380;-88
2021/09/06 08:39:41;;;;;;;4.05;0.70;;;;;;;38.74;13.42;101370.86;2372385;81;25678;-89
2021/09/06 08:43:05;;;;;;;1.97;0.93;;;;;;;39.14;13.37;101372.64;2372832;82;25698;-82
2021/09/06 08:46:27;;;;;;;5.15;0.80;;;;;;;39.50;13.49;101369.28;2397554;80;25194;-88
2021/09/06 08:49:49;;;;;;;1.37;0.60;;;;;;;39.85;13.24;101377.25;2396310;81;25669;-87
2021/09/06 08:53:10;;;;;;;1.92;0.75;;;;;;;40.01;12.78;101379.55;2400503;81;25599;-82
2021/09/06 08:56:33;;;;;;;0.60;0.50;;;;;;;40.22;12.83;101385.57;2398682;81;25736;-82
2021/09/06 09:00:04;;;;;;;2.65;0.68;;;;;;;40.47;12.69;101381.56;2391817;82;25661;-92
2021/09/06 09:03:37;;;;;;;3.50;0.60;;;;;;;40.50;12.40;101379.93;2394611;81;25680;-83
2021/09/06 09:07:04;;;;;;;1.12;0.75;;;;;;;40.46;12.39;101375.74;2391397;81;25727;-81
2021/09/06 09:10:38;;;;;;;1.10;0.80;;;;;;;39.88;12.47;101377.50;2376220;82;25620;-82
2021/09/06 09:14:25;;;;;;;1.30;0.47;;;;;;;39.97;12.76;101378.09;2331471;84;25723;-82
2021/09/06 09:17:57;;;;;;;1.15;0.50;;;;;;;40.01;12.53;101374.59;2324897;83;25906;-82
2021/09/06 09:21:23;;;;;;;3.70;0.50;;;;;;;39.25;12.46;101374.98;2282336;85;25673;-83
2021/09/06 09:25:13;;;;;;;0.60;0.45;;;;;;;39.25;12.67;101370.89;2275856;85;25689;-81
2021/09/06 09:28:52;;;;;;;1.10;0.50;;;;;;;39.41;12.77;101372.26;2269758;85;26642;-87
2021/09/06 09:32:36;;;;;;;2.50;0.50;;;;;;;39.65;12.55;101369.84;2264282;85;25948;-82
2021/09/06 09:36:36;;;;;;;0.78;0.47;;;;;;;39.79;12.33;101371.45;2263987;85;25947;-83
2021/09/06 09:40:01;;;;;;;0.50;0.50;;;;;;;39.81;12.47;101372.20;2266183;86;25765;-85
2021/09/06 09:43:31;;;;;;;0.55;0.50;;;;;;;39.99;12.60;101371.98;2268139;85;25804;-84
2021/09/06 09:47:05;;;;;;;0.88;0.68;;;;;;;39.80;12.67;101367.73;2276936;86;25720;-83
2021/09/06 09:50:40;;;;;;;2.20;0.60;;;;;;;39.51;12.46;101360.08;2276834;84;25712;-84
2021/09/06 09:54:17;;;;;;;1.57;0.60;;;;;;;39.04;12.42;101353.06;2288248;83;25743;-83
2021/09/06 09:57:42;;;;;;;3.83;0.60;;;;;;;37.95;12.99;101335.74;2297874;81;26027;-85
2021/09/06 10:01:39;;;;;;;1.07;0.57;;;;;;;38.03;13.31;101332.79;2401710;80;25757;-89
2021/09/06 10:05:06;;;;;;;1.25;0.50;;;;;;;38.19;13.34;101342.00;2407642;80;26103;-83
2021/09/06 10:08:30;;;;;;;1.52;0.70;;;;;;;37.80;13.08;101329.57;2397865;81;25684;-84
2021/09/06 10:11:54;;;;;;;1.85;0.75;;;;;;;37.72;13.64;101325.22;2416757;80;25943;-84
2021/09/06 10:15:21;;;;;;;0.90;0.70;;;;;;;37.44;13.26;101328.66;2444241;79;25688;-84
2021/09/06 10:18:49;;;;;;;6.50;0.90;;;;;;;37.44;13.26;101328.66;2443629;79;25637;-85
2021/09/06 10:22:26;;;;;;;1.37;0.70;;;;;;;37.44;13.85;101325.08;2451102;80;26403;-84
2021/09/06 10:25:50;;;;;;;0.75;0.70;;;;;;;37.55;14.04;101319.20;2449622;79;25602;-83
2021/09/06 10:29:17;;;;;;;2.67;0.60;;;;;;;37.75;14.22;101299.99;2449577;80;25542;-84
2021/09/06 10:32:45;;;;;;;1.00;0.68;;;;;;;37.85;14.22;101301.52;2448598;79;25575;-84
2021/09/06 10:36:19;;;;;;;10.58;0.80;;;;;;;37.85;14.22;101301.52;2419043;79;25661;-83
2021/09/06 10:39:46;;;;;;;0.90;0.80;;;;;;;37.82;13.92;101299.03;2440311;80;25618;-85
2021/09/06 10:43:24;;;;;;;3.20;0.90;;;;;;;37.58;13.63;101305.86;2443070;80;25724;-86
2021/09/06 10:46:57;;;;;;;2.00;0.70;;;;;;;36.72;13.94;101293.59;2449204;79;25651;-83
2021/09/06 10:50:37;;;;;;;2.45;0.82;;;;;;;36.88;14.22;101292.36;2410655;80;25706;-83
2021/09/06 10:54:03;;;;;;;1.67;0.80;;;;;;;36.67;13.36;101294.43;2437221;79;25649;-83
2021/09/06 10:57:24;;;;;;;1.32;0.75;;;;;;;35.60;14.06;101288.63;2440284;79;25704;-84
2021/09/06 11:00:53;;;;;;;2.00;1.00;;;;;;;35.39;13.99;101286.84;2447362;79;26288;-84
2021/09/06 11:04:18;;;;;;;1.67;1.17;;;;;;;34.91;14.66;101286.34;2443033;79;25669;-83
2021/09/06 11:08:05;;;;;;;1.65;1.20;;;;;;;34.93;14.92;101279.00;2434756;79;25790;-84
2021/09/06 11:11:35;;;;;;;4.85;0.82;;;;;;;34.88;15.19;101270.28;2449178;79;25721;-83
2021/09/06 11:14:59;;;;;;;1.67;1.10;;;;;;;35.12;15.08;101277.83;2444440;79;25601;-85
2021/09/06 11:18:20;;;;;;;1.05;0.80;;;;;;;34.91;15.06;101266.52;2445092;79;25777;-85
2021/09/06 11:22:03;;;;;;;3.00;0.80;;;;;;;34.94;15.21;101273.09;2448785;79;25245;-83
2021/09/06 11:25:44;;;;;;;5.97;0.90;;;;;;;34.84;15.02;101267.88;2448421;80;25657;-84
2021/09/06 11:29:07;;;;;;;3.98;0.70;;;;;;;34.52;15.19;101270.78;2441972;80;25605;-84
2021/09/06 11:32:30;;;;;;;3.87;1.00;;;;;;;33.83;15.19;101260.95;2449974;79;25754;-85
2021/09/06 11:35:51;;;;;;;3.70;0.90;;;;;;;32.68;15.70;101258.53;2451743;79;25598;-84
2021/09/06 11:39:12;;;;;;;2.22;0.90;;;;;;;31.77;16.23;101252.96;2449530;79;25537;-87
2021/09/06 11:42:37;;;;;;;5.33;0.80;;;;;;;31.34;16.62;101246.16;2449712;79;25653;-83
2021/09/06 11:46:04;;;;;;;1.85;0.88;;;;;;;31.37;16.92;101245.53;2428672;80;25812;-82
2021/09/06 11:49:37;;;;;;;1.22;0.80;;;;;;;31.62;17.33;101246.51;2428049;80;26035;-83
2021/09/06 11:53:17;;;;;;;5.15;1.05;;;;;;;32.15;17.52;101243.37;2398809;80;26111;-83
2021/09/06 11:56:37;;;;;;;1.40;0.80;;;;;;;32.49;16.87;101240.24;2429174;79;25751;-83
2021/09/06 12:00:05;;;;;;;4.87;0.80;;;;;;;32.48;17.19;101239.38;2429275;79;25724;-82
2021/09/06 12:03:29;;;;;;;1.47;0.80;;;;;;;32.75;17.28;101245.09;2422771;79;25736;-85
2021/09/06 12:07:27;;;;;;;1.95;0.88;;;;;;;33.22;17.18;101231.23;2425131;79;25682;-82
2021/09/06 12:11:15;;;;;;;3.58;1.30;;;;;;;33.10;16.51;101226.03;2376872;80;26130;-82
2021/09/06 12:15:52;;;;;;;2.30;1.00;;;;;;;33.09;17.02;101217.06;2397587;80;26182;-81
2021/09/06 12:19:28;;;;;;;5.50;0.60;;;;;;;33.30;16.84;101212.23;2429082;79;26320;-85
2021/09/06 12:22:58;;;;;;;4.35;0.80;;;;;;;33.30;16.69;101202.78;2423156;79;25601;-83
2021/09/06 12:26:21;;;;;;;6.03;0.75;;;;;;;33.33;16.01;101207.14;2427280;80;25679;-83
2021/09/06 12:30:19;;;;;;;3.27;0.80;;;;;;;32.35;16.56;101201.83;2424655;79;25652;-83
2021/09/06 12:33:50;;;;;;;0.85;0.70;;;;;;;31.88;16.97;101203.41;2421870;79;25650;-83
2021/09/06 12:37:33;;;;;;;1.17;0.82;;;;;;;32.08;17.30;101200.14;2417208;80;25523;-82
2021/09/06 12:40:56;;;;;;;1.87;1.00;;;;;;;32.33;17.22;101200.58;2415585;80;25974;-82
2021/09/06 12:44:36;;;;;;;0.70;0.70;;;;;;;32.63;17.41;101195.80;2427721;80;25672;-82
2021/09/06 12:48:06;;;;;;;2.77;0.95;;;;;;;33.01;17.25;101190.08;2428898;79;25994;-83
2021/09/06 12:51:32;;;;;;;1.40;0.70;;;;;;;33.32;17.38;101189.19;2434116;80;26117;-83
2021/09/06 12:54:55;;;;;;;5.12;1.25;;;;;;;33.62;16.93;101183.83;2427652;79;25868;-84
2021/09/06 12:58:25;;;;;;;2.23;0.90;;;;;;;32.62;16.46;101160.32;2452259;79;26182;-83
2021/09/06 13:01:52;;;;;;;2.60;0.82;;;;;;;32.62;16.46;101160.32;2475876;77;26056;-82
2021/09/06 13:05:31;;;;;;;1.17;0.60;;;;;;;31.82;16.87;101171.34;2481866;79;25860;-81
2021/09/06 13:08:54;;;;;;;1.90;0.65;;;;;;;31.56;17.43;101165.98;2464005;78;25942;-80
2021/09/06 13:12:40;;;;;;;8.50;1.25;;;;;;;31.68;17.62;101168.50;2447382;80;25693;-82
2021/09/06 13:16:06;;;;;;;2.92;0.82;;;;;;;31.82;17.63;101171.34;2444005;80;25692;-82
2021/09/06 13:19:47;;;;;;;0.80;0.75;;;;;;;32.07;17.71;101166.91;2413722;80;25665;-81
2021/09/06 13:23:36;;;;;;;2.12;0.98;;;;;;;32.00;17.50;101162.80;2432200;80;25962;-87
2021/09/06 13:27:43;;;;;;;3.05;0.80;;;;;;;31.38;17.91;101158.34;2433602;79;25966;-86
2021/09/06 13:31:13;;;;;;;3.25;0.90;;;;;;;31.29;18.62;101151.59;2431666;78;25658;-86
2021/09/06 13:34:49;;;;;;;2.47;0.82;;;;;;;30.69;18.45;101160.84;2441300;79;25591;-90
2021/09/06 13:38:28;;;;;;;2.40;0.70;;;;;;;30.26;19.57;101154.30;2432943;80;26135;-89
2021/09/06 13:41:48;;;;;;;1.50;1.05;;;;;;;30.29;19.87;101163.58;2433045;78;25486;-89
2021/09/06 13:45:10;;;;;;;2.42;0.57;;;;;;;30.29;20.46;101155.52;2440449;79;26061;-90
2021/09/06 13:48:41;;;;;;;3.95;0.70;;;;;;;30.21;20.29;101156.83;2420748;78;25950;-90
2021/09/06 13:52:34;;;;;;;1.12;0.80;;;;;;;30.19;21.83;101149.29;2434705;80;25956;-89
2021/09/06 13:59:56;;;;;;;3.15;0.60;;;;;;;29.53;20.69;101154.84;2380856;81;25694;-86
2021/09/06 14:03:20;;;;;;;2.20;0.68;;;;;;;29.39;21.98;101148.72;2400206;81;25762;-91
2021/09/06 14:07:53;;;;;;;4.97;0.65;;;;;;;29.29;20.95;101146.02;2359409;81;25895;-83
2021/09/06 14:10:55;;;;;;;2.65;0.90;;;;;;;29.18;22.30;101149.16;2320938;83;26115;-89
2021/09/06 14:14:53;;;;;;;3.65;0.72;;;;;;;28.99;22.27;101139.63;2363652;80;26213;-91
2021/09/06 14:18:39;;;;;;;1.00;0.75;;;;;;;28.98;23.12;101144.58;2374669;81;25705;-93
2021/09/06 14:26:17;;;;;;;1.87;0.80;;;;;;;28.93;23.67;101139.41;2344180;82;26233;-88
2021/09/06 14:29:54;;;;;;;2.20;0.50;;;;;;;28.94;22.90;101140.28;2343411;83;25710;-88
2021/09/06 14:33:30;;;;;;;7.15;1.20;;;;;;;28.66;22.76;101128.45;2340813;82;25776;-84
2021/09/06 14:36:57;;;;;;;0.80;0.80;;;;;;;28.10;22.17;101134.15;2294807;83;25816;-88
2021/09/06 14:40:20;;;;;;;3.90;0.60;;;;;;;27.50;24.55;101120.19;2241538;85;25723;-87
2021/09/06 14:43:57;;;;;;;6.30;0.55;;;;;;;27.21;23.97;101115.86;2207994;87;26192;-86
2021/09/06 14:47:24;;;;;;;5.35;0.60;;;;;;;26.51;23.20;101124.31;2249743;84;26223;-87
2021/09/06 14:50:53;;;;;;;6.15;0.70;;;;;;;25.85;23.69;101112.41;2267039;84;26267;-88
2021/09/06 14:54:19;;;;;;;3.33;0.60;;;;;;;25.42;24.57;101105.98;2264116;85;26208;-89
2021/09/06 14:57:48;;;;;;;4.58;0.88;;;;;;;25.01;25.12;101101.22;2263539;84;26318;-88
2021/09/06 15:05:31;;;;;;;1.57;0.60;;;;;;;24.63;24.95;101098.11;2260672;86;25994;-88
2021/09/06 15:09:10;;;;;;;6.28;0.62;;;;;;;24.37;26.10;101092.03;2316059;82;25753;-89
2021/09/06 15:12:31;;;;;;;0.95;0.60;;;;;;;24.07;26.01;101097.56;2328427;82;25691;-87
2021/09/06 15:16:02;;;;;;;1.25;0.70;;;;;;;23.70;26.08;101094.30;2325868;82;25951;-86
2021/09/06 15:19:37;;;;;;;1.35;0.80;;;;;;;23.50;26.55;101098.17;2255509;85;26317;-84
2021/09/06 15:23:31;;;;;;;1.40;0.70;;;;;;;23.20;26.66;101086.29;2269696;85;25726;-88
2021/09/06 15:26:58;;;;;;;1.10;0.60;;;;;;;23.16;27.62;101087.25;2289844;82;25779;-87
2021/09/06 15:30:53;;;;;;;4.60;0.72;;;;;;;23.12;27.39;101084.66;2322359;80;26268;-87
2021/09/06 15:34:26;;;;;;;3.55;0.60;;;;;;;22.99;27.37;101093.31;2273183;84;25663;-86
2021/09/06 15:37:49;;;;;;;1.20;0.70;;;;;;;22.65;27.67;101093.80;2287800;84;26074;-85
2021/09/06 15:41:56;;;;;;;3.40;0.60;;;;;;;22.52;27.60;101093.55;2276247;84;25812;-84
2021/09/06 15:45:35;;;;;;;1.47;0.60;;;;;;;22.35;27.76;101093.79;2267180;84;25665;-84
2021/09/06 15:48:56;;;;;;;0.62;0.60;;;;;;;22.07;27.93;101089.23;2268875;84;25856;-85
2021/09/06 15:52:23;;;;;;;1.77;0.75;;;;;;;21.86;28.19;101087.72;2263419;84;26238;-86
2021/09/06 15:55:51;;;;;;;1.07;0.60;;;;;;;21.83;29.04;101083.77;2258998;84;25904;-87
2021/09/06 15:59:11;;;;;;;2.08;0.60;;;;;;;21.81;29.29;101087.78;2311043;83;26041;-86
2021/09/06 16:02:38;;;;;;;1.12;0.70;;;;;;;21.70;28.96;101085.72;2306338;83;25646;-85
2021/09/06 16:06:09;;;;;;;1.17;0.40;;;;;;;21.54;29.03;101086.31;2305553;83;25733;-85
2021/09/06 16:09:29;;;;;;;0.85;0.62;;;;;;;21.48;29.69;101094.33;2313997;81;26169;-84
2021/09/06 16:13:09;;;;;;;4.03;0.70;;;;;;;21.34;29.39;101090.91;2399580;80;25413;-83
2021/09/06 16:16:30;;;;;;;4.17;0.80;;;;;;;21.17;29.67;101085.30;2387324;80;25856;-85